sensor_id;sensor_type;location;lat;lon;timestamp;P1;durP1;ratioP1;P2;durP2;ratioP2
23142;SDS011;11740;51.168;4.112;2024-03-29T00:02:06;5.22;;;1.23;;
23142;SDS011;11740;51.168;4.112;2024-03-29T00:04:33;7.35;;;1.10;;
23142;SDS011;11740;51.168;4.112;2024-03-29T00:06:59;4.35;;;1.30;;
23142;SDS011;11740;51.168;4.112;2024-03-29T00:09:26;5.45;;;1.23;;
23142;SDS011;11740;51.168;4.112;2024-03-29T00:11:52;6.55;;;1.45;;
23142;SDS011;11740;51.168;4.112;2024-03-29T00:14:19;5.35;;;1.05;;
23142;SDS011;11740;51.168;4.112;2024-03-29T00:16:46;8.13;;;1.50;;
23142;SDS011;11740;51.168;4.112;2024-03-29T00:19:12;5.05;;;1.20;;
23142;SDS011;11740;51.168;4.112;2024-03-29T00:21:39;8.52;;;1.60;;
23142;SDS011;11740;51.168;4.112;2024-03-29T00:24:05;7.28;;;1.20;;
23142;SDS011;11740;51.168;4.112;2024-03-29T00:26:32;6.50;;;1.20;;
23142;SDS011;11740;51.168;4.112;2024-03-29T00:28:59;5.40;;;1.20;;
23142;SDS011;11740;51.168;4.112;2024-03-29T00:31:25;5.32;;;1.33;;
23142;SDS011;11740;51.168;4.112;2024-03-29T00:33:52;6.05;;;1.20;;
23142;SDS011;11740;51.168;4.112;2024-03-29T00:36:18;5.35;;;1.30;;
23142;SDS011;11740;51.168;4.112;2024-03-29T00:38:45;5.30;;;1.20;;
23142;SDS011;11740;51.168;4.112;2024-03-29T00:41:11;6.72;;;1.50;;
23142;SDS011;11740;51.168;4.112;2024-03-29T00:43:38;6.93;;;1.52;;
23142;SDS011;11740;51.168;4.112;2024-03-29T00:46:04;7.68;;;1.25;;
23142;SDS011;11740;51.168;4.112;2024-03-29T00:48:31;4.60;;;1.15;;
23142;SDS011;11740;51.168;4.112;2024-03-29T00:50:57;6.05;;;1.30;;
23142;SDS011;11740;51.168;4.112;2024-03-29T00:53:24;7.38;;;1.50;;
23142;SDS011;11740;51.168;4.112;2024-03-29T00:55:51;3.28;;;1.00;;
23142;SDS011;11740;51.168;4.112;2024-03-29T00:58:17;4.13;;;1.75;;
23142;SDS011;11740;51.168;4.112;2024-03-29T01:00:44;5.95;;;1.52;;
23142;SDS011;11740;51.168;4.112;2024-03-29T01:03:11;5.78;;;1.30;;
23142;SDS011;11740;51.168;4.112;2024-03-29T01:05:37;7.10;;;1.10;;
23142;SDS011;11740;51.168;4.112;2024-03-29T01:08:04;6.28;;;1.17;;
23142;SDS011;11740;51.168;4.112;2024-03-29T01:10:31;6.05;;;1.27;;
23142;SDS011;11740;51.168;4.112;2024-03-29T01:12:57;5.80;;;1.23;;
23142;SDS011;11740;51.168;4.112;2024-03-29T01:15:24;3.90;;;0.90;;
23142;SDS011;11740;51.168;4.112;2024-03-29T01:17:51;2.97;;;1.20;;
23142;SDS011;11740;51.168;4.112;2024-03-29T01:20:17;7.75;;;1.40;;
23142;SDS011;11740;51.168;4.112;2024-03-29T01:22:44;7.60;;;1.30;;
23142;SDS011;11740;51.168;4.112;2024-03-29T01:25:10;6.50;;;1.27;;
23142;SDS011;11740;51.168;4.112;2024-03-29T01:27:39;5.45;;;0.90;;
23142;SDS011;11740;51.168;4.112;2024-03-29T01:30:05;4.78;;;1.10;;
23142;SDS011;11740;51.168;4.112;2024-03-29T01:32:33;4.25;;;1.00;;
23142;SDS011;11740;51.168;4.112;2024-03-29T01:34:59;5.72;;;1.10;;
23142;SDS011;11740;51.168;4.112;2024-03-29T01:37:26;4.80;;;0.80;;
23142;SDS011;11740;51.168;4.112;2024-03-29T01:39:52;3.53;;;0.90;;
23142;SDS011;11740;51.168;4.112;2024-03-29T01:42:19;4.07;;;1.05;;
23142;SDS011;11740;51.168;4.112;2024-03-29T01:44:46;5.03;;;0.80;;
23142;SDS011;11740;51.168;4.112;2024-03-29T01:47:12;5.35;;;1.00;;
23142;SDS011;11740;51.168;4.112;2024-03-29T01:49:39;2.42;;;0.80;;
23142;SDS011;11740;51.168;4.112;2024-03-29T01:52:06;5.28;;;0.88;;
23142;SDS011;11740;51.168;4.112;2024-03-29T01:54:33;1.75;;;0.68;;
23142;SDS011;11740;51.168;4.112;2024-03-29T01:56:59;2.10;;;0.90;;
23142;SDS011;11740;51.168;4.112;2024-03-29T01:59:26;3.28;;;0.85;;
23142;SDS011;11740;51.168;4.112;2024-03-29T02:01:53;2.20;;;0.90;;
23142;SDS011;11740;51.168;4.112;2024-03-29T02:04:20;2.92;;;0.88;;
23142;SDS011;11740;51.168;4.112;2024-03-29T02:06:47;3.15;;;0.68;;
23142;SDS011;11740;51.168;4.112;2024-03-29T02:09:14;2.88;;;0.70;;
23142;SDS011;11740;51.168;4.112;2024-03-29T02:11:40;3.00;;;0.90;;
23142;SDS011;11740;51.168;4.112;2024-03-29T02:14:07;4.03;;;1.13;;
23142;SDS011;11740;51.168;4.112;2024-03-29T02:16:33;1.38;;;0.50;;
23142;SDS011;11740;51.168;4.112;2024-03-29T02:19:00;2.03;;;0.80;;
23142;SDS011;11740;51.168;4.112;2024-03-29T02:21:26;2.70;;;0.60;;
23142;SDS011;11740;51.168;4.112;2024-03-29T02:24:00;3.47;;;0.80;;
23142;SDS011;11740;51.168;4.112;2024-03-29T02:26:29;1.83;;;0.50;;
23142;SDS011;11740;51.168;4.112;2024-03-29T02:28:58;2.20;;;0.70;;
23142;SDS011;11740;51.168;4.112;2024-03-29T02:31:25;4.07;;;0.90;;
23142;SDS011;11740;51.168;4.112;2024-03-29T02:33:51;3.78;;;0.88;;
23142;SDS011;11740;51.168;4.112;2024-03-29T02:36:18;2.50;;;0.50;;
23142;SDS011;11740;51.168;4.112;2024-03-29T02:38:45;1.60;;;0.57;;
23142;SDS011;11740;51.168;4.112;2024-03-29T02:41:11;1.80;;;0.47;;
23142;SDS011;11740;51.168;4.112;2024-03-29T02:43:37;3.40;;;0.57;;
23142;SDS011;11740;51.168;4.112;2024-03-29T02:46:04;3.78;;;0.68;;
23142;SDS011;11740;51.168;4.112;2024-03-29T02:48:30;4.07;;;0.60;;
23142;SDS011;11740;51.168;4.112;2024-03-29T02:50:57;1.85;;;0.60;;
23142;SDS011;11740;51.168;4.112;2024-03-29T02:53:24;4.13;;;0.52;;
23142;SDS011;11740;51.168;4.112;2024-03-29T02:55:51;0.93;;;0.40;;
23142;SDS011;11740;51.168;4.112;2024-03-29T02:58:17;0.77;;;0.30;;
23142;SDS011;11740;51.168;4.112;2024-03-29T03:00:44;2.03;;;0.50;;
23142;SDS011;11740;51.168;4.112;2024-03-29T03:03:10;1.05;;;0.30;;
23142;SDS011;11740;51.168;4.112;2024-03-29T03:05:39;1.15;;;0.30;;
23142;SDS011;11740;51.168;4.112;2024-03-29T03:08:06;0.80;;;0.20;;
23142;SDS011;11740;51.168;4.112;2024-03-29T03:13:29;1.35;;;0.28;;
23142;SDS011;11740;51.168;4.112;2024-03-29T03:15:56;2.60;;;0.40;;
23142;SDS011;11740;51.168;4.112;2024-03-29T03:18:23;0.52;;;0.13;;
23142;SDS011;11740;51.168;4.112;2024-03-29T03:20:53;0.95;;;0.30;;
23142;SDS011;11740;51.168;4.112;2024-03-29T03:23:20;0.40;;;0.20;;
23142;SDS011;11740;51.168;4.112;2024-03-29T03:25:53;1.67;;;0.43;;
23142;SDS011;11740;51.168;4.112;2024-03-29T03:28:24;2.65;;;0.32;;
23142;SDS011;11740;51.168;4.112;2024-03-29T03:30:51;2.65;;;0.45;;
23142;SDS011;11740;51.168;4.112;2024-03-29T03:33:19;1.55;;;0.60;;
23142;SDS011;11740;51.168;4.112;2024-03-29T03:35:45;2.67;;;0.60;;
23142;SDS011;11740;51.168;4.112;2024-03-29T03:38:12;1.55;;;0.70;;
23142;SDS011;11740;51.168;4.112;2024-03-29T03:40:39;2.35;;;0.70;;
23142;SDS011;11740;51.168;4.112;2024-03-29T03:43:06;3.15;;;0.75;;
23142;SDS011;11740;51.168;4.112;2024-03-29T03:45:33;1.42;;;0.50;;
23142;SDS011;11740;51.168;4.112;2024-03-29T03:48:04;2.53;;;0.68;;
23142;SDS011;11740;51.168;4.112;2024-03-29T03:50:32;2.22;;;0.65;;
23142;SDS011;11740;51.168;4.112;2024-03-29T03:52:59;2.95;;;0.93;;
23142;SDS011;11740;51.168;4.112;2024-03-29T03:55:26;1.58;;;0.77;;
23142;SDS011;11740;51.168;4.112;2024-03-29T03:57:53;4.60;;;1.08;;
23142;SDS011;11740;51.168;4.112;2024-03-29T04:00:20;2.92;;;1.00;;
23142;SDS011;11740;51.168;4.112;2024-03-29T04:02:51;3.00;;;1.13;;
23142;SDS011;11740;51.168;4.112;2024-03-29T04:05:18;3.30;;;1.45;;
23142;SDS011;11740;51.168;4.112;2024-03-29T04:07:45;5.10;;;1.60;;
23142;SDS011;11740;51.168;4.112;2024-03-29T04:10:12;3.50;;;1.67;;
23142;SDS011;11740;51.168;4.112;2024-03-29T04:12:39;3.78;;;1.85;;
23142;SDS011;11740;51.168;4.112;2024-03-29T04:15:06;3.28;;;1.80;;
23142;SDS011;11740;51.168;4.112;2024-03-29T04:17:33;5.00;;;1.85;;
23142;SDS011;11740;51.168;4.112;2024-03-29T04:19:59;5.75;;;1.85;;
23142;SDS011;11740;51.168;4.112;2024-03-29T04:22:30;5.00;;;1.70;;
23142;SDS011;11740;51.168;4.112;2024-03-29T04:24:56;3.28;;;1.65;;
23142;SDS011;11740;51.168;4.112;2024-03-29T04:27:23;3.55;;;1.45;;
23142;SDS011;11740;51.168;4.112;2024-03-29T04:29:51;3.67;;;1.65;;
23142;SDS011;11740;51.168;4.112;2024-03-29T04:32:18;4.88;;;1.60;;
23142;SDS011;11740;51.168;4.112;2024-03-29T04:34:48;3.60;;;1.45;;
23142;SDS011;11740;51.168;4.112;2024-03-29T04:37:15;4.97;;;1.65;;
23142;SDS011;11740;51.168;4.112;2024-03-29T04:39:43;2.22;;;1.27;;
23142;SDS011;11740;51.168;4.112;2024-03-29T04:42:10;4.93;;;1.75;;
23142;SDS011;11740;51.168;4.112;2024-03-29T04:44:37;5.28;;;1.60;;
23142;SDS011;11740;51.168;4.112;2024-03-29T04:47:05;2.40;;;1.40;;
23142;SDS011;11740;51.168;4.112;2024-03-29T04:49:32;4.03;;;1.48;;
23142;SDS011;11740;51.168;4.112;2024-03-29T04:52:05;4.50;;;1.63;;
23142;SDS011;11740;51.168;4.112;2024-03-29T04:54:32;4.68;;;1.50;;
23142;SDS011;11740;51.168;4.112;2024-03-29T04:56:59;3.55;;;1.50;;
23142;SDS011;11740;51.168;4.112;2024-03-29T04:59:32;6.50;;;1.75;;
23142;SDS011;11740;51.168;4.112;2024-03-29T05:01:59;5.57;;;1.52;;
23142;SDS011;11740;51.168;4.112;2024-03-29T05:04:26;2.67;;;1.33;;
23142;SDS011;11740;51.168;4.112;2024-03-29T05:06:56;4.40;;;1.55;;
23142;SDS011;11740;51.168;4.112;2024-03-29T05:09:24;4.10;;;1.60;;
23142;SDS011;11740;51.168;4.112;2024-03-29T05:11:51;3.53;;;1.50;;
23142;SDS011;11740;51.168;4.112;2024-03-29T05:14:19;3.97;;;1.45;;
23142;SDS011;11740;51.168;4.112;2024-03-29T05:16:47;4.50;;;1.40;;
23142;SDS011;11740;51.168;4.112;2024-03-29T05:19:14;2.75;;;1.15;;
23142;SDS011;11740;51.168;4.112;2024-03-29T05:21:41;2.83;;;1.17;;
23142;SDS011;11740;51.168;4.112;2024-03-29T05:24:08;4.80;;;1.27;;
23142;SDS011;11740;51.168;4.112;2024-03-29T05:26:34;2.35;;;0.98;;
23142;SDS011;11740;51.168;4.112;2024-03-29T05:29:01;2.22;;;0.90;;
23142;SDS011;11740;51.168;4.112;2024-03-29T05:31:29;6.30;;;0.85;;
23142;SDS011;11740;51.168;4.112;2024-03-29T05:33:56;1.20;;;0.60;;
23142;SDS011;11740;51.168;4.112;2024-03-29T05:36:22;1.45;;;0.90;;
23142;SDS011;11740;51.168;4.112;2024-03-29T05:38:49;2.30;;;0.80;;
23142;SDS011;11740;51.168;4.112;2024-03-29T05:41:16;2.13;;;1.08;;
23142;SDS011;11740;51.168;4.112;2024-03-29T05:43:42;2.35;;;0.90;;
23142;SDS011;11740;51.168;4.112;2024-03-29T05:46:09;2.55;;;1.00;;
23142;SDS011;11740;51.168;4.112;2024-03-29T05:48:36;2.05;;;0.90;;
23142;SDS011;11740;51.168;4.112;2024-03-29T05:51:04;2.75;;;1.00;;
23142;SDS011;11740;51.168;4.112;2024-03-29T05:53:31;2.28;;;1.00;;
23142;SDS011;11740;51.168;4.112;2024-03-29T05:55:57;4.15;;;1.00;;
23142;SDS011;11740;51.168;4.112;2024-03-29T05:58:24;2.25;;;1.02;;
23142;SDS011;11740;51.168;4.112;2024-03-29T06:00:50;3.70;;;1.35;;
23142;SDS011;11740;51.168;4.112;2024-03-29T06:03:17;4.38;;;1.20;;
23142;SDS011;11740;51.168;4.112;2024-03-29T06:05:44;2.20;;;1.00;;
23142;SDS011;11740;51.168;4.112;2024-03-29T06:08:10;3.25;;;1.23;;
23142;SDS011;11740;51.168;4.112;2024-03-29T06:10:37;2.97;;;1.30;;
23142;SDS011;11740;51.168;4.112;2024-03-29T06:13:04;1.83;;;0.85;;
23142;SDS011;11740;51.168;4.112;2024-03-29T06:15:35;2.22;;;0.95;;
23142;SDS011;11740;51.168;4.112;2024-03-29T06:18:20;1.60;;;1.15;;
23142;SDS011;11740;51.168;4.112;2024-03-29T06:20:47;2.15;;;1.10;;
23142;SDS011;11740;51.168;4.112;2024-03-29T06:23:14;1.63;;;0.90;;
23142;SDS011;11740;51.168;4.112;2024-03-29T06:25:42;1.33;;;0.77;;
23142;SDS011;11740;51.168;4.112;2024-03-29T06:28:09;1.75;;;0.93;;
23142;SDS011;11740;51.168;4.112;2024-03-29T06:30:36;2.10;;;0.85;;
23142;SDS011;11740;51.168;4.112;2024-03-29T06:33:02;2.45;;;1.05;;
23142;SDS011;11740;51.168;4.112;2024-03-29T06:35:30;3.60;;;1.25;;
23142;SDS011;11740;51.168;4.112;2024-03-29T06:37:57;1.60;;;1.00;;
23142;SDS011;11740;51.168;4.112;2024-03-29T06:40:23;1.75;;;0.85;;
23142;SDS011;11740;51.168;4.112;2024-03-29T06:42:50;0.98;;;0.70;;
23142;SDS011;11740;51.168;4.112;2024-03-29T06:45:16;2.83;;;0.90;;
23142;SDS011;11740;51.168;4.112;2024-03-29T06:47:43;0.77;;;0.57;;
23142;SDS011;11740;51.168;4.112;2024-03-29T06:50:10;3.00;;;0.47;;
23142;SDS011;11740;51.168;4.112;2024-03-29T06:52:36;1.20;;;0.70;;
23142;SDS011;11740;51.168;4.112;2024-03-29T06:55:03;1.77;;;0.70;;
23142;SDS011;11740;51.168;4.112;2024-03-29T06:57:30;2.42;;;0.60;;
23142;SDS011;11740;51.168;4.112;2024-03-29T06:59:57;2.10;;;0.75;;
23142;SDS011;11740;51.168;4.112;2024-03-29T07:02:24;0.95;;;0.50;;
23142;SDS011;11740;51.168;4.112;2024-03-29T07:04:50;2.35;;;0.65;;
23142;SDS011;11740;51.168;4.112;2024-03-29T07:07:17;1.13;;;0.55;;
23142;SDS011;11740;51.168;4.112;2024-03-29T07:09:43;3.13;;;0.70;;
23142;SDS011;11740;51.168;4.112;2024-03-29T07:12:10;1.75;;;0.60;;
23142;SDS011;11740;51.168;4.112;2024-03-29T07:14:46;1.95;;;0.90;;
23142;SDS011;11740;51.168;4.112;2024-03-29T07:17:13;1.42;;;0.70;;
23142;SDS011;11740;51.168;4.112;2024-03-29T07:19:39;2.55;;;0.75;;
23142;SDS011;11740;51.168;4.112;2024-03-29T07:22:06;0.80;;;0.55;;
23142;SDS011;11740;51.168;4.112;2024-03-29T07:24:32;1.35;;;0.77;;
23142;SDS011;11740;51.168;4.112;2024-03-29T07:26:59;0.73;;;0.60;;
23142;SDS011;11740;51.168;4.112;2024-03-29T07:29:25;1.73;;;0.98;;
23142;SDS011;11740;51.168;4.112;2024-03-29T07:31:52;1.45;;;0.70;;
23142;SDS011;11740;51.168;4.112;2024-03-29T07:34:19;1.60;;;0.80;;
23142;SDS011;11740;51.168;4.112;2024-03-29T07:36:46;2.47;;;1.00;;
23142;SDS011;11740;51.168;4.112;2024-03-29T07:39:12;2.17;;;0.50;;
23142;SDS011;11740;51.168;4.112;2024-03-29T07:41:39;2.55;;;0.70;;
23142;SDS011;11740;51.168;4.112;2024-03-29T07:44:05;1.77;;;0.90;;
23142;SDS011;11740;51.168;4.112;2024-03-29T07:46:34;1.55;;;0.90;;
23142;SDS011;11740;51.168;4.112;2024-03-29T07:49:02;1.50;;;0.90;;
23142;SDS011;11740;51.168;4.112;2024-03-29T07:51:29;0.95;;;0.70;;
23142;SDS011;11740;51.168;4.112;2024-03-29T07:53:56;1.05;;;0.68;;
23142;SDS011;11740;51.168;4.112;2024-03-29T07:56:22;2.42;;;0.68;;
23142;SDS011;11740;51.168;4.112;2024-03-29T07:58:51;0.88;;;0.60;;
23142;SDS011;11740;51.168;4.112;2024-03-29T08:01:22;1.98;;;0.73;;
23142;SDS011;11740;51.168;4.112;2024-03-29T08:03:52;2.25;;;0.90;;
23142;SDS011;11740;51.168;4.112;2024-03-29T08:06:21;1.90;;;0.95;;
23142;SDS011;11740;51.168;4.112;2024-03-29T08:08:51;2.22;;;1.00;;
23142;SDS011;11740;51.168;4.112;2024-03-29T08:11:18;2.45;;;0.80;;
23142;SDS011;11740;51.168;4.112;2024-03-29T08:13:44;3.63;;;0.90;;
23142;SDS011;11740;51.168;4.112;2024-03-29T08:16:11;1.50;;;0.90;;
23142;SDS011;11740;51.168;4.112;2024-03-29T08:18:38;3.60;;;1.08;;
23142;SDS011;11740;51.168;4.112;2024-03-29T08:21:05;1.92;;;0.90;;
23142;SDS011;11740;51.168;4.112;2024-03-29T08:23:40;2.33;;;1.10;;
23142;SDS011;11740;51.168;4.112;2024-03-29T08:26:10;4.32;;;1.50;;
23142;SDS011;11740;51.168;4.112;2024-03-29T08:28:37;4.65;;;1.13;;
23142;SDS011;11740;51.168;4.112;2024-03-29T08:31:07;3.33;;;1.30;;
23142;SDS011;11740;51.168;4.112;2024-03-29T08:33:36;5.75;;;1.70;;
23142;SDS011;11740;51.168;4.112;2024-03-29T08:36:06;3.40;;;1.30;;
23142;SDS011;11740;51.168;4.112;2024-03-29T08:38:34;6.78;;;1.58;;
23142;SDS011;11740;51.168;4.112;2024-03-29T08:41:00;4.03;;;1.90;;
23142;SDS011;11740;51.168;4.112;2024-03-29T08:43:27;2.75;;;1.40;;
23142;SDS011;11740;51.168;4.112;2024-03-29T08:45:54;5.25;;;1.42;;
23142;SDS011;11740;51.168;4.112;2024-03-29T08:48:21;4.82;;;1.75;;
23142;SDS011;11740;51.168;4.112;2024-03-29T08:50:49;3.00;;;1.52;;
23142;SDS011;11740;51.168;4.112;2024-03-29T08:53:15;2.47;;;1.38;;
23142;SDS011;11740;51.168;4.112;2024-03-29T08:55:42;6.40;;;1.45;;
23142;SDS011;11740;51.168;4.112;2024-03-29T08:58:08;4.43;;;1.35;;
23142;SDS011;11740;51.168;4.112;2024-03-29T09:00:35;9.90;;;1.48;;
23142;SDS011;11740;51.168;4.112;2024-03-29T09:03:01;5.63;;;1.50;;
23142;SDS011;11740;51.168;4.112;2024-03-29T09:05:28;2.42;;;1.48;;
23142;SDS011;11740;51.168;4.112;2024-03-29T09:07:55;3.40;;;1.52;;
23142;SDS011;11740;51.168;4.112;2024-03-29T09:10:23;3.00;;;1.25;;
23142;SDS011;11740;51.168;4.112;2024-03-29T09:12:52;2.85;;;1.48;;
23142;SDS011;11740;51.168;4.112;2024-03-29T09:15:18;6.32;;;1.67;;
23142;SDS011;11740;51.168;4.112;2024-03-29T09:17:45;11.45;;;1.92;;
23142;SDS011;11740;51.168;4.112;2024-03-29T09:20:12;8.45;;;1.92;;
23142;SDS011;11740;51.168;4.112;2024-03-29T09:22:39;5.82;;;1.30;;
23142;SDS011;11740;51.168;4.112;2024-03-29T09:25:06;4.40;;;1.50;;
23142;SDS011;11740;51.168;4.112;2024-03-29T09:27:39;5.45;;;1.45;;
23142;SDS011;11740;51.168;4.112;2024-03-29T09:30:09;6.15;;;1.45;;
23142;SDS011;11740;51.168;4.112;2024-03-29T09:32:36;2.53;;;1.30;;
23142;SDS011;11740;51.168;4.112;2024-03-29T09:35:03;4.10;;;1.20;;
23142;SDS011;11740;51.168;4.112;2024-03-29T09:37:30;9.60;;;1.30;;
23142;SDS011;11740;51.168;4.112;2024-03-29T09:40:02;2.63;;;1.20;;
23142;SDS011;11740;51.168;4.112;2024-03-29T09:42:29;3.30;;;1.20;;
23142;SDS011;11740;51.168;4.112;2024-03-29T09:44:58;2.55;;;1.13;;
23142;SDS011;11740;51.168;4.112;2024-03-29T09:47:28;3.53;;;1.27;;
23142;SDS011;11740;51.168;4.112;2024-03-29T09:49:57;7.20;;;1.55;;
23142;SDS011;11740;51.168;4.112;2024-03-29T09:52:25;3.25;;;1.30;;
23142;SDS011;11740;51.168;4.112;2024-03-29T09:54:52;3.80;;;1.27;;
23142;SDS011;11740;51.168;4.112;2024-03-29T09:57:19;2.50;;;1.08;;
23142;SDS011;11740;51.168;4.112;2024-03-29T09:59:45;5.50;;;1.50;;
23142;SDS011;11740;51.168;4.112;2024-03-29T10:02:16;3.13;;;1.30;;
23142;SDS011;11740;51.168;4.112;2024-03-29T10:04:43;2.88;;;1.17;;
23142;SDS011;11740;51.168;4.112;2024-03-29T10:07:11;3.05;;;1.20;;
23142;SDS011;11740;51.168;4.112;2024-03-29T10:09:41;3.95;;;1.02;;
23142;SDS011;11740;51.168;4.112;2024-03-29T10:12:09;9.60;;;1.73;;
23142;SDS011;11740;51.168;4.112;2024-03-29T10:14:49;3.17;;;0.98;;
23142;SDS011;11740;51.168;4.112;2024-03-29T10:17:24;1.92;;;1.17;;
23142;SDS011;11740;51.168;4.112;2024-03-29T10:19:50;3.33;;;1.13;;
23142;SDS011;11740;51.168;4.112;2024-03-29T10:22:17;2.78;;;1.20;;
23142;SDS011;11740;51.168;4.112;2024-03-29T10:24:43;1.95;;;1.10;;
23142;SDS011;11740;51.168;4.112;2024-03-29T10:27:10;4.05;;;1.20;;
23142;SDS011;11740;51.168;4.112;2024-03-29T10:29:37;2.08;;;1.30;;
23142;SDS011;11740;51.168;4.112;2024-03-29T10:32:05;6.68;;;1.20;;
23142;SDS011;11740;51.168;4.112;2024-03-29T10:34:32;4.53;;;1.30;;
23142;SDS011;11740;51.168;4.112;2024-03-29T10:37:03;1.55;;;0.90;;
23142;SDS011;11740;51.168;4.112;2024-03-29T10:39:30;3.72;;;1.65;;
23142;SDS011;11740;51.168;4.112;2024-03-29T10:41:59;4.38;;;1.27;;
23142;SDS011;11740;51.168;4.112;2024-03-29T10:44:26;3.65;;;1.00;;
23142;SDS011;11740;51.168;4.112;2024-03-29T10:46:54;1.80;;;1.13;;
23142;SDS011;11740;51.168;4.112;2024-03-29T10:49:23;3.70;;;1.30;;
23142;SDS011;11740;51.168;4.112;2024-03-29T10:51:50;2.33;;;1.40;;
23142;SDS011;11740;51.168;4.112;2024-03-29T10:54:17;1.73;;;1.20;;
23142;SDS011;11740;51.168;4.112;2024-03-29T10:56:43;1.85;;;1.38;;
23142;SDS011;11740;51.168;4.112;2024-03-29T10:59:18;1.30;;;1.20;;
23142;SDS011;11740;51.168;4.112;2024-03-29T11:01:57;5.05;;;1.33;;
23142;SDS011;11740;51.168;4.112;2024-03-29T11:04:28;2.90;;;1.63;;
23142;SDS011;11740;51.168;4.112;2024-03-29T11:07:01;2.70;;;1.23;;
23142;SDS011;11740;51.168;4.112;2024-03-29T11:09:35;2.33;;;1.15;;
23142;SDS011;11740;51.168;4.112;2024-03-29T11:12:04;3.72;;;1.20;;
23142;SDS011;11740;51.168;4.112;2024-03-29T11:14:34;2.28;;;1.23;;
23142;SDS011;11740;51.168;4.112;2024-03-29T11:17:08;5.68;;;1.20;;
23142;SDS011;11740;51.168;4.112;2024-03-29T11:19:38;1.65;;;0.82;;
23142;SDS011;11740;51.168;4.112;2024-03-29T11:22:05;2.47;;;0.90;;
23142;SDS011;11740;51.168;4.112;2024-03-29T11:24:32;1.60;;;0.80;;
23142;SDS011;11740;51.168;4.112;2024-03-29T11:27:09;2.33;;;0.90;;
23142;SDS011;11740;51.168;4.112;2024-03-29T11:29:41;2.22;;;1.00;;
23142;SDS011;11740;51.168;4.112;2024-03-29T11:32:08;2.17;;;1.02;;
23142;SDS011;11740;51.168;4.112;2024-03-29T11:34:42;2.40;;;1.17;;
23142;SDS011;11740;51.168;4.112;2024-03-29T11:37:12;3.17;;;1.33;;
23142;SDS011;11740;51.168;4.112;2024-03-29T11:39:39;2.35;;;0.93;;
23142;SDS011;11740;51.168;4.112;2024-03-29T11:42:06;3.70;;;0.90;;
23142;SDS011;11740;51.168;4.112;2024-03-29T11:44:33;11.95;;;1.83;;
23142;SDS011;11740;51.168;4.112;2024-03-29T11:46:59;1.02;;;0.70;;
23142;SDS011;11740;51.168;4.112;2024-03-29T11:49:26;2.20;;;1.00;;
23142;SDS011;11740;51.168;4.112;2024-03-29T11:52:01;3.03;;;0.80;;
23142;SDS011;11740;51.168;4.112;2024-03-29T11:54:38;1.08;;;0.93;;
23142;SDS011;11740;51.168;4.112;2024-03-29T11:57:05;4.13;;;0.85;;
23142;SDS011;11740;51.168;4.112;2024-03-29T11:59:31;3.47;;;0.90;;
23142;SDS011;11740;51.168;4.112;2024-03-29T12:01:58;2.10;;;0.90;;
23142;SDS011;11740;51.168;4.112;2024-03-29T12:04:25;1.10;;;0.70;;
23142;SDS011;11740;51.168;4.112;2024-03-29T12:06:51;3.53;;;0.80;;
23142;SDS011;11740;51.168;4.112;2024-03-29T12:09:18;2.70;;;1.00;;
23142;SDS011;11740;51.168;4.112;2024-03-29T12:11:45;1.17;;;0.88;;
23142;SDS011;11740;51.168;4.112;2024-03-29T12:14:15;1.67;;;0.70;;
23142;SDS011;11740;51.168;4.112;2024-03-29T12:16:45;42.33;;;2.80;;
23142;SDS011;11740;51.168;4.112;2024-03-29T12:19:25;1.13;;;0.68;;
23142;SDS011;11740;51.168;4.112;2024-03-29T12:21:53;1.45;;;0.80;;
23142;SDS011;11740;51.168;4.112;2024-03-29T12:24:20;1.83;;;0.80;;
23142;SDS011;11740;51.168;4.112;2024-03-29T12:26:48;1.67;;;0.70;;
23142;SDS011;11740;51.168;4.112;2024-03-29T12:29:15;2.30;;;0.80;;
23142;SDS011;11740;51.168;4.112;2024-03-29T12:31:42;0.77;;;0.50;;
23142;SDS011;11740;51.168;4.112;2024-03-29T12:34:09;1.13;;;0.82;;
23142;SDS011;11740;51.168;4.112;2024-03-29T12:36:35;1.95;;;0.70;;
23142;SDS011;11740;51.168;4.112;2024-03-29T12:39:02;0.98;;;0.60;;
23142;SDS011;11740;51.168;4.112;2024-03-29T12:41:31;1.45;;;0.82;;
23142;SDS011;11740;51.168;4.112;2024-03-29T12:43:58;1.30;;;0.57;;
23142;SDS011;11740;51.168;4.112;2024-03-29T12:46:24;1.33;;;0.80;;
23142;SDS011;11740;51.168;4.112;2024-03-29T12:48:59;1.40;;;0.60;;
23142;SDS011;11740;51.168;4.112;2024-03-29T12:51:29;4.22;;;0.60;;
23142;SDS011;11740;51.168;4.112;2024-03-29T12:53:56;1.98;;;0.50;;
23142;SDS011;11740;51.168;4.112;2024-03-29T12:56:29;2.95;;;0.40;;
23142;SDS011;11740;51.168;4.112;2024-03-29T12:58:56;0.93;;;0.50;;
23142;SDS011;11740;51.168;4.112;2024-03-29T13:01:23;1.17;;;0.60;;
23142;SDS011;11740;51.168;4.112;2024-03-29T13:03:49;1.23;;;0.50;;
23142;SDS011;11740;51.168;4.112;2024-03-29T13:06:16;0.57;;;0.47;;
23142;SDS011;11740;51.168;4.112;2024-03-29T13:08:43;2.28;;;0.60;;
23142;SDS011;11740;51.168;4.112;2024-03-29T13:11:10;1.90;;;0.60;;
23142;SDS011;11740;51.168;4.112;2024-03-29T13:13:36;0.80;;;0.60;;
23142;SDS011;11740;51.168;4.112;2024-03-29T13:16:03;1.35;;;0.60;;
23142;SDS011;11740;51.168;4.112;2024-03-29T13:18:30;0.68;;;0.30;;
23142;SDS011;11740;51.168;4.112;2024-03-29T13:20:56;0.50;;;0.40;;
23142;SDS011;11740;51.168;4.112;2024-03-29T13:23:27;1.20;;;0.40;;
23142;SDS011;11740;51.168;4.112;2024-03-29T13:25:54;1.15;;;0.43;;
23142;SDS011;11740;51.168;4.112;2024-03-29T13:28:21;0.50;;;0.32;;
23142;SDS011;11740;51.168;4.112;2024-03-29T13:30:48;2.00;;;0.50;;
23142;SDS011;11740;51.168;4.112;2024-03-29T13:33:17;1.90;;;0.50;;
23142;SDS011;11740;51.168;4.112;2024-03-29T13:35:43;1.38;;;0.50;;
23142;SDS011;11740;51.168;4.112;2024-03-29T13:38:11;0.40;;;0.40;;
23142;SDS011;11740;51.168;4.112;2024-03-29T13:40:37;0.82;;;0.40;;
23142;SDS011;11740;51.168;4.112;2024-03-29T13:43:05;1.23;;;0.50;;
23142;SDS011;11740;51.168;4.112;2024-03-29T13:45:32;0.77;;;0.43;;
23142;SDS011;11740;51.168;4.112;2024-03-29T13:47:59;1.23;;;0.50;;
23142;SDS011;11740;51.168;4.112;2024-03-29T13:50:26;1.88;;;0.50;;
23142;SDS011;11740;51.168;4.112;2024-03-29T13:52:52;1.90;;;0.50;;
23142;SDS011;11740;51.168;4.112;2024-03-29T13:55:20;1.05;;;0.40;;
23142;SDS011;11740;51.168;4.112;2024-03-29T13:57:51;1.73;;;0.57;;
23142;SDS011;11740;51.168;4.112;2024-03-29T14:00:20;2.10;;;0.30;;
23142;SDS011;11740;51.168;4.112;2024-03-29T14:02:47;2.05;;;0.60;;
23142;SDS011;11740;51.168;4.112;2024-03-29T14:05:13;1.60;;;0.70;;
23142;SDS011;11740;51.168;4.112;2024-03-29T14:07:40;0.73;;;0.60;;
23142;SDS011;11740;51.168;4.112;2024-03-29T14:10:07;1.42;;;0.50;;
23142;SDS011;11740;51.168;4.112;2024-03-29T14:12:34;4.93;;;1.60;;
23142;SDS011;11740;51.168;4.112;2024-03-29T14:15:00;2.05;;;0.88;;
23142;SDS011;11740;51.168;4.112;2024-03-29T14:17:28;1.83;;;0.47;;
23142;SDS011;11740;51.168;4.112;2024-03-29T14:19:54;1.48;;;0.52;;
23142;SDS011;11740;51.168;4.112;2024-03-29T14:22:20;2.10;;;0.70;;
23142;SDS011;11740;51.168;4.112;2024-03-29T14:24:49;0.98;;;0.50;;
23142;SDS011;11740;51.168;4.112;2024-03-29T14:27:15;3.05;;;0.60;;
23142;SDS011;11740;51.168;4.112;2024-03-29T14:29:42;1.25;;;0.60;;
23142;SDS011;11740;51.168;4.112;2024-03-29T14:32:11;1.10;;;0.57;;
23142;SDS011;11740;51.168;4.112;2024-03-29T14:34:38;1.77;;;0.60;;
23142;SDS011;11740;51.168;4.112;2024-03-29T14:37:10;1.75;;;0.70;;
23142;SDS011;11740;51.168;4.112;2024-03-29T14:39:39;1.02;;;0.70;;
23142;SDS011;11740;51.168;4.112;2024-03-29T14:42:08;2.53;;;0.70;;
23142;SDS011;11740;51.168;4.112;2024-03-29T14:44:36;1.05;;;0.70;;
23142;SDS011;11740;51.168;4.112;2024-03-29T14:47:03;1.17;;;0.52;;
23142;SDS011;11740;51.168;4.112;2024-03-29T14:49:31;1.73;;;0.60;;
23142;SDS011;11740;51.168;4.112;2024-03-29T14:51:58;1.55;;;0.60;;
23142;SDS011;11740;51.168;4.112;2024-03-29T14:54:25;2.28;;;0.60;;